createdAt,value
2019-05-17T00:01:38.323Z,0.40
2019-05-17T00:04:07.179Z,0.30
2019-05-17T00:06:36.803Z,0.40
2019-05-17T00:09:06.976Z,0.20
2019-05-17T00:11:36.624Z,0.20
2019-05-17T00:14:03.103Z,0.20
2019-05-17T00:16:30.299Z,0.10
2019-05-17T00:18:57.521Z,0.60
2019-05-17T00:21:27.352Z,0.30
2019-05-17T00:23:54.192Z,1.10
2019-05-17T00:26:21.484Z,0.60
2019-05-17T00:28:48.682Z,0.50
2019-05-17T00:31:17.175Z,0.70
2019-05-17T00:33:46.743Z,0.65
2019-05-17T00:36:13.592Z,0.53
2019-05-17T00:38:48.221Z,0.60
2019-05-17T00:41:10.072Z,0.50
2019-05-17T00:43:37.264Z,0.57
2019-05-17T00:46:06.727Z,0.40
2019-05-17T00:48:33.695Z,0.60
2019-05-17T00:51:02.337Z,1.10
2019-05-17T00:53:30.117Z,1.37
2019-05-17T00:55:57.439Z,1.20
2019-05-17T00:58:26.298Z,0.60
2019-05-17T01:00:53.901Z,0.80
2019-05-17T01:03:21.174Z,0.68
2019-05-17T01:05:48.396Z,0.72
2019-05-17T01:08:17.455Z,0.90
2019-05-17T01:10:44.610Z,0.60
2019-05-17T01:13:11.950Z,1.10
2019-05-17T01:15:39.167Z,0.57
2019-05-17T01:18:07.187Z,1.42
2019-05-17T01:20:36.843Z,0.55
2019-05-17T01:23:03.677Z,0.50
2019-05-17T01:25:31.349Z,0.60
2019-05-17T01:27:58.544Z,0.60
2019-05-17T01:30:26.629Z,0.70
2019-05-17T01:32:54.044Z,0.50
2019-05-17T01:35:21.249Z,1.20
2019-05-17T01:37:48.473Z,1.47
2019-05-17T01:40:17.567Z,0.90
2019-05-17T01:42:46.494Z,0.55
2019-05-17T01:45:16.439Z,0.40
2019-05-17T01:47:43.269Z,0.40
2019-05-17T01:50:10.535Z,1.50
2019-05-17T01:52:37.759Z,0.80
2019-05-17T01:55:07.705Z,0.90
2019-05-17T01:57:37.076Z,0.72
2019-05-17T02:00:06.479Z,0.65
2019-05-17T02:02:36.581Z,1.32
2019-05-17T02:05:06.500Z,1.82
2019-05-17T02:07:34.193Z,2.92
2019-05-17T02:10:01.505Z,1.37
2019-05-17T02:12:29.253Z,1.75
2019-05-17T02:14:57.547Z,1.20
2019-05-17T02:17:26.578Z,2.05
2019-05-17T02:19:53.928Z,1.80
2019-05-17T02:22:21.123Z,1.35
2019-05-17T02:24:48.352Z,0.90
2019-05-17T02:27:15.545Z,0.50
2019-05-17T02:29:42.737Z,0.50
2019-05-17T02:32:12.739Z,0.80
2019-05-17T02:34:38.894Z,0.50
2019-05-17T02:37:06.161Z,1.17
2019-05-17T02:39:33.400Z,0.60
2019-05-17T02:42:02.818Z,0.40
2019-05-17T02:44:33.160Z,0.60
2019-05-17T02:46:58.477Z,0.60
2019-05-17T02:49:25.672Z,1.90
2019-05-17T02:51:52.969Z,0.68
2019-05-17T02:54:23.249Z,0.57
2019-05-17T02:56:49.308Z,0.50
2019-05-17T02:59:16.511Z,0.60
2019-05-17T03:01:44.376Z,2.70
2019-05-17T03:04:13.038Z,2.15
2019-05-17T03:06:43.661Z,2.40
2019-05-17T03:09:12.392Z,3.52
2019-05-17T03:11:38.618Z,2.15
2019-05-17T03:14:05.811Z,0.80
2019-05-17T03:16:33.919Z,1.17
2019-05-17T03:19:04.290Z,1.20
2019-05-17T03:21:33.489Z,1.32
2019-05-17T03:24:02.846Z,0.78
2019-05-17T03:26:28.458Z,0.98
2019-05-17T03:28:55.712Z,0.78
2019-05-17T03:31:26.470Z,1.10
2019-05-17T03:33:55.610Z,0.98
2019-05-17T03:36:25.978Z,1.02
2019-05-17T03:38:53.325Z,0.62
2019-05-17T03:41:24.875Z,0.60
2019-05-17T03:43:48.556Z,1.70
2019-05-17T03:46:15.798Z,1.20
2019-05-17T03:48:43.639Z,0.45
2019-05-17T03:51:13.122Z,0.75
2019-05-17T03:53:43.879Z,0.45
2019-05-17T03:56:09.209Z,2.17
2019-05-17T03:58:36.465Z,0.80
2019-05-17T04:01:04.303Z,1.25
2019-05-17T04:03:35.384Z,2.65
2019-05-17T04:06:03.594Z,2.72
2019-05-17T04:08:29.652Z,1.65
2019-05-17T04:10:56.842Z,3.17
2019-05-17T04:13:24.085Z,2.10
2019-05-17T04:15:52.983Z,3.15
2019-05-17T04:18:23.327Z,1.50
2019-05-17T04:20:52.513Z,1.12
2019-05-17T04:23:19.198Z,2.77
2019-05-17T04:25:46.522Z,4.40
2019-05-17T04:28:14.002Z,2.67
2019-05-17T04:30:43.262Z,1.90
2019-05-17T04:33:12.842Z,4.72
2019-05-17T04:35:43.002Z,2.22
2019-05-17T04:38:08.650Z,3.92
2019-05-17T04:40:35.917Z,1.85
2019-05-17T04:43:03.807Z,3.62
2019-05-17T04:45:33.490Z,2.47
2019-05-17T04:48:03.635Z,3.00
2019-05-17T04:50:29.072Z,2.60
2019-05-17T04:52:56.313Z,2.12
2019-05-17T04:55:23.717Z,1.35
2019-05-17T04:57:52.969Z,1.05
2019-05-17T05:00:21.894Z,1.10
2019-05-17T05:02:52.513Z,1.80
2019-05-17T05:05:18.289Z,1.80
2019-05-17T05:07:45.561Z,2.10
2019-05-17T05:10:13.865Z,0.95
2019-05-17T05:12:43.628Z,0.85
2019-05-17T05:15:12.176Z,2.98
2019-05-17T05:17:42.224Z,2.00
2019-05-17T05:20:08.349Z,1.20
2019-05-17T05:22:35.686Z,3.10
2019-05-17T05:25:03.646Z,2.17
2019-05-17T05:27:31.623Z,5.72
2019-05-17T05:29:58.980Z,3.47
2019-05-17T05:32:26.204Z,3.40
2019-05-17T05:34:53.396Z,1.30
2019-05-17T05:37:23.121Z,2.98
2019-05-17T05:39:52.355Z,2.20
2019-05-17T05:42:18.652Z,3.30
2019-05-17T05:44:45.844Z,1.92
2019-05-17T05:47:13.236Z,2.62
2019-05-17T05:49:42.485Z,2.80
2019-05-17T05:52:09.372Z,2.72
2019-05-17T05:54:36.564Z,2.55
2019-05-17T05:57:03.880Z,5.03
2019-05-17T05:59:31.731Z,4.75
2019-05-17T06:02:01.772Z,2.70
2019-05-17T06:04:29.080Z,2.22
2019-05-17T06:06:56.376Z,1.90
2019-05-17T06:09:23.864Z,1.67
2019-05-17T06:11:51.932Z,1.00
2019-05-17T06:14:21.467Z,1.95
2019-05-17T06:16:48.180Z,2.62
2019-05-17T06:19:15.380Z,2.45
2019-05-17T06:21:42.838Z,1.82
2019-05-17T06:24:11.913Z,3.80
2019-05-17T06:26:41.943Z,1.60
2019-05-17T06:29:08.580Z,1.67
2019-05-17T06:31:37.068Z,1.20
2019-05-17T06:34:04.408Z,1.32
2019-05-17T06:36:32.825Z,0.80
2019-05-17T06:39:02.245Z,1.87
2019-05-17T06:41:29.264Z,1.20
2019-05-17T06:43:56.876Z,1.32
2019-05-17T06:46:24.072Z,1.17
2019-05-17T06:48:53.001Z,1.47
2019-05-17T06:51:22.070Z,2.75
2019-05-17T06:53:49.168Z,1.32
2019-05-17T06:56:16.365Z,1.62
2019-05-17T06:58:43.564Z,1.75
2019-05-17T07:01:10.809Z,1.15
2019-05-17T07:03:39.864Z,2.15
2019-05-17T07:06:10.829Z,4.75
2019-05-17T07:08:37.531Z,3.47
2019-05-17T07:11:05.113Z,2.92
2019-05-17T07:13:32.299Z,3.05
2019-05-17T07:15:59.814Z,4.22
2019-05-17T07:18:27.236Z,6.30
2019-05-17T07:20:55.041Z,1.77
2019-05-17T07:23:22.564Z,0.88
2019-05-17T07:25:50.412Z,2.58
2019-05-17T07:28:19.870Z,3.02
2019-05-17T07:30:47.121Z,3.90
2019-05-17T07:33:14.321Z,3.62
2019-05-17T07:35:41.650Z,1.12
2019-05-17T07:38:10.710Z,1.20
2019-05-17T07:40:39.824Z,2.25
2019-05-17T07:43:10.833Z,1.42
2019-05-17T07:45:35.781Z,1.85
2019-05-17T07:48:03.029Z,2.75
2019-05-17T07:50:30.485Z,1.98
2019-05-17T07:52:57.864Z,1.20
2019-05-17T07:55:25.057Z,1.62
2019-05-17T07:57:52.252Z,2.22
2019-05-17T08:00:20.100Z,2.08
2019-05-17T08:02:50.454Z,1.50
2019-05-17T08:05:17.392Z,1.32
2019-05-17T08:07:45.048Z,1.02
2019-05-17T08:10:12.291Z,0.98
2019-05-17T08:12:40.521Z,0.50
2019-05-17T08:15:10.596Z,1.45
2019-05-17T08:17:39.480Z,1.62
2019-05-17T08:20:06.231Z,3.65
2019-05-17T08:22:33.467Z,3.47
2019-05-17T08:25:00.733Z,3.37
2019-05-17T08:27:29.612Z,2.47
2019-05-17T08:29:59.374Z,3.12
2019-05-17T08:32:25.803Z,1.45
2019-05-17T08:34:53.004Z,2.67
2019-05-17T08:37:20.582Z,1.20
2019-05-17T08:39:50.402Z,3.00
2019-05-17T08:42:16.779Z,1.30
2019-05-17T08:44:44.196Z,2.00
2019-05-17T08:47:11.665Z,4.03
2019-05-17T08:49:40.281Z,2.77
2019-05-17T08:52:09.921Z,3.75
2019-05-17T08:54:40.522Z,2.25
2019-05-17T08:57:06.238Z,4.00
2019-05-17T08:59:33.457Z,2.52
2019-05-17T09:02:00.657Z,1.95
2019-05-17T09:04:29.737Z,1.62
2019-05-17T09:06:56.888Z,1.52
2019-05-17T09:09:24.083Z,3.17
2019-05-17T09:11:51.380Z,2.20
2019-05-17T09:14:18.612Z,3.92
2019-05-17T09:16:45.811Z,4.37
2019-05-17T09:19:13.508Z,2.45
2019-05-17T09:21:41.102Z,2.87
2019-05-17T09:24:10.360Z,3.50
2019-05-17T09:26:39.740Z,3.33
2019-05-17T09:29:06.260Z,4.25
2019-05-17T09:31:33.452Z,3.33
2019-05-17T09:34:00.643Z,5.45
2019-05-17T09:36:30.218Z,4.83
2019-05-17T09:38:57.152Z,4.97
2019-05-17T09:41:24.357Z,3.72
2019-05-17T09:43:51.584Z,5.62
2019-05-17T09:46:19.662Z,3.27
2019-05-17T09:48:47.219Z,6.10
2019-05-17T09:51:14.564Z,2.90
2019-05-17T09:53:41.924Z,5.92
2019-05-17T09:56:09.899Z,2.72
2019-05-17T09:58:39.711Z,3.02
2019-05-17T10:01:06.364Z,2.83
2019-05-17T10:03:33.560Z,5.55
2019-05-17T10:06:01.220Z,5.28
2019-05-17T10:08:28.785Z,3.67
2019-05-17T10:11:08.120Z,8.85
2019-05-17T10:13:24.992Z,5.08
2019-05-17T10:15:52.412Z,2.27
2019-05-17T10:18:20.111Z,3.15
2019-05-17T10:20:47.461Z,2.60
2019-05-17T10:23:15.053Z,2.42
2019-05-17T10:25:42.248Z,7.80
2019-05-17T10:28:10.067Z,3.12
2019-05-17T10:30:39.811Z,3.17
2019-05-17T10:33:06.492Z,8.58
2019-05-17T10:35:34.072Z,4.20
2019-05-17T10:38:01.630Z,5.58
2019-05-17T10:40:29.893Z,5.85
2019-05-17T10:42:57.685Z,5.17
2019-05-17T10:45:25.223Z,5.00
2019-05-17T10:47:52.452Z,5.75
2019-05-17T10:50:20.551Z,5.03
2019-05-17T10:52:48.144Z,9.35
2019-05-17T10:55:15.770Z,5.05
2019-05-17T10:57:43.064Z,7.30
2019-05-17T11:00:10.418Z,5.25
2019-05-17T11:02:38.039Z,5.97
2019-05-17T11:05:05.573Z,5.25
2019-05-17T11:07:32.796Z,4.17
2019-05-17T11:10:00.595Z,6.40
2019-05-17T11:12:28.202Z,6.25
2019-05-17T11:15:09.702Z,4.90
2019-05-17T11:17:24.742Z,4.50
2019-05-17T11:19:52.000Z,6.72
2019-05-17T11:22:19.227Z,3.77
2019-05-17T11:24:46.496Z,4.22
2019-05-17T11:27:13.836Z,6.08
2019-05-17T11:29:41.064Z,9.03
2019-05-17T11:32:08.337Z,6.10
2019-05-17T11:34:35.632Z,5.95
2019-05-17T11:37:02.905Z,8.75
2019-05-17T11:39:30.493Z,10.50
2019-05-17T11:41:58.046Z,7.08
2019-05-17T11:44:25.533Z,11.57
2019-05-17T11:46:52.737Z,6.35
2019-05-17T11:49:20.060Z,7.33
2019-05-17T11:51:47.289Z,7.58
2019-05-17T11:54:14.512Z,6.08
2019-05-17T11:56:42.070Z,6.92
2019-05-17T11:59:09.297Z,9.35
2019-05-17T12:01:36.492Z,6.50
2019-05-17T12:04:03.720Z,8.53
2019-05-17T12:06:30.999Z,7.17
2019-05-17T12:08:58.294Z,6.87
2019-05-17T12:11:25.555Z,5.95
2019-05-17T12:13:52.781Z,9.30
2019-05-17T12:16:19.989Z,11.57
2019-05-17T12:18:47.281Z,9.23
2019-05-17T12:21:14.482Z,6.83
2019-05-17T12:23:41.777Z,5.75
2019-05-17T12:26:08.976Z,5.50
2019-05-17T12:28:36.195Z,5.85
2019-05-17T12:31:03.402Z,6.83
2019-05-17T12:33:30.676Z,4.90
2019-05-17T12:35:57.985Z,5.75
2019-05-17T12:38:25.545Z,6.22
2019-05-17T12:40:52.841Z,7.17
2019-05-17T12:43:20.144Z,10.65
2019-05-17T12:45:59.468Z,6.30
2019-05-17T12:48:16.294Z,6.17
2019-05-17T12:50:43.590Z,5.20
2019-05-17T12:53:10.857Z,3.25
2019-05-17T12:55:38.448Z,6.20
2019-05-17T12:58:05.670Z,5.33
2019-05-17T13:00:32.916Z,5.70
2019-05-17T13:03:00.156Z,7.90
2019-05-17T13:05:27.356Z,4.00
2019-05-17T13:07:54.628Z,6.15
2019-05-17T13:10:21.849Z,5.25
2019-05-17T13:12:49.047Z,3.02
2019-05-17T13:15:16.440Z,2.83
2019-05-17T13:17:43.636Z,3.30
2019-05-17T13:20:10.933Z,4.20
2019-05-17T13:22:38.151Z,8.20
2019-05-17T13:25:06.409Z,7.55
2019-05-17T13:27:33.600Z,3.62
2019-05-17T13:30:00.833Z,3.12
2019-05-17T13:32:28.027Z,8.68
2019-05-17T13:34:55.252Z,7.53
2019-05-17T13:37:22.750Z,7.50
2019-05-17T13:39:50.308Z,6.85
2019-05-17T13:42:17.579Z,8.30
2019-05-17T13:44:45.045Z,5.87
2019-05-17T13:47:12.344Z,4.03
2019-05-17T13:49:39.646Z,3.33
2019-05-17T13:52:07.046Z,3.92
2019-05-17T13:54:34.312Z,2.60
2019-05-17T13:57:01.626Z,4.12
2019-05-17T13:59:28.811Z,3.40
2019-05-17T14:01:56.113Z,2.30
2019-05-17T14:04:23.384Z,5.35
2019-05-17T14:06:50.609Z,5.22
2019-05-17T14:09:17.810Z,3.83
2019-05-17T14:11:45.032Z,5.25
2019-05-17T14:14:12.234Z,5.20
2019-05-17T14:16:39.541Z,4.53
2019-05-17T14:19:06.853Z,6.78
2019-05-17T14:21:34.216Z,4.65
2019-05-17T14:24:01.506Z,4.25
2019-05-17T14:26:28.870Z,5.00
2019-05-17T14:28:56.065Z,4.87
2019-05-17T14:31:23.298Z,7.72
2019-05-17T14:33:50.854Z,4.80
2019-05-17T14:36:18.158Z,3.67
2019-05-17T14:38:45.436Z,2.60
2019-05-17T14:41:13.121Z,2.65
2019-05-17T14:43:40.677Z,5.53
2019-05-17T14:46:07.981Z,3.70
2019-05-17T14:48:35.355Z,4.87
2019-05-17T14:51:02.628Z,5.95
2019-05-17T14:53:29.857Z,5.33
2019-05-17T14:55:57.053Z,4.22
2019-05-17T14:58:24.352Z,3.58
2019-05-17T15:00:51.626Z,4.90
2019-05-17T15:03:18.920Z,4.70
2019-05-17T15:05:46.231Z,5.25
2019-05-17T15:08:13.457Z,3.75
2019-05-17T15:10:40.649Z,3.42
2019-05-17T15:13:07.957Z,2.90
2019-05-17T15:15:35.151Z,3.27
2019-05-17T15:18:02.379Z,3.12
2019-05-17T15:20:29.584Z,1.95
2019-05-17T15:22:56.880Z,1.70
2019-05-17T15:25:24.080Z,3.33
2019-05-17T15:27:51.305Z,2.50
2019-05-17T15:30:18.861Z,1.85
2019-05-17T15:32:46.162Z,2.27
2019-05-17T15:35:13.362Z,1.87
2019-05-17T15:37:40.687Z,1.90
2019-05-17T15:40:07.949Z,3.15
2019-05-17T15:42:43.567Z,2.65
2019-05-17T15:45:05.720Z,2.62
2019-05-17T15:47:32.973Z,1.62
2019-05-17T15:50:00.229Z,1.70
2019-05-17T15:52:27.520Z,2.87
2019-05-17T15:54:54.725Z,3.08
2019-05-17T15:57:21.930Z,2.10
2019-05-17T15:59:49.147Z,2.20
2019-05-17T16:02:16.349Z,2.20
2019-05-17T16:04:43.656Z,2.25
2019-05-17T16:07:10.926Z,1.77
2019-05-17T16:09:38.157Z,2.40
2019-05-17T16:12:05.348Z,3.25
2019-05-17T16:14:32.588Z,2.45
2019-05-17T16:16:59.857Z,2.55
2019-05-17T16:19:27.469Z,1.80
2019-05-17T16:21:54.778Z,2.85
2019-05-17T16:24:22.481Z,2.80
2019-05-17T16:26:49.755Z,1.75
2019-05-17T16:29:17.052Z,1.95
2019-05-17T16:31:44.249Z,1.62
2019-05-17T16:34:11.473Z,2.10
2019-05-17T16:36:38.668Z,1.62
2019-05-17T16:39:08.370Z,1.42
2019-05-17T16:41:34.888Z,1.40
2019-05-17T16:44:02.180Z,1.30
2019-05-17T16:46:29.784Z,1.70
2019-05-17T16:48:57.021Z,1.65
2019-05-17T16:51:24.225Z,2.77
2019-05-17T16:53:51.853Z,1.50
2019-05-17T16:56:19.308Z,1.52
2019-05-17T16:58:46.965Z,1.22
2019-05-17T17:01:14.173Z,1.22
2019-05-17T17:03:44.521Z,1.15
2019-05-17T17:06:10.641Z,1.47
2019-05-17T17:08:37.884Z,1.82
2019-05-17T17:11:05.109Z,1.40
2019-05-17T17:13:33.367Z,1.30
2019-05-17T17:16:01.217Z,1.20
2019-05-17T17:18:28.496Z,0.70
2019-05-17T17:20:55.786Z,1.20
2019-05-17T17:23:22.984Z,1.20
2019-05-17T17:25:50.217Z,1.00
2019-05-17T17:28:17.479Z,0.70
2019-05-17T17:30:44.713Z,1.17
2019-05-17T17:33:11.931Z,1.52
2019-05-17T17:35:39.244Z,2.75
2019-05-17T17:38:06.496Z,1.62
2019-05-17T17:40:33.721Z,1.22
2019-05-17T17:43:00.916Z,1.00
2019-05-17T17:45:28.154Z,1.12
2019-05-17T17:47:55.429Z,0.80
2019-05-17T17:50:22.663Z,0.78
2019-05-17T17:52:50.193Z,0.80
2019-05-17T17:55:17.484Z,0.90
2019-05-17T17:57:44.679Z,0.82
2019-05-17T18:00:11.904Z,0.68
2019-05-17T18:02:39.179Z,0.90
2019-05-17T18:05:06.501Z,1.10
2019-05-17T18:07:33.703Z,0.75
2019-05-17T18:10:01.013Z,0.85
2019-05-17T18:12:28.286Z,1.05
2019-05-17T18:14:55.484Z,0.60
2019-05-17T18:17:22.731Z,0.68
2019-05-17T18:19:50.357Z,0.57
2019-05-17T18:22:17.575Z,0.60
2019-05-17T18:24:44.776Z,0.70
2019-05-17T18:27:12.337Z,0.60
2019-05-17T18:29:39.600Z,0.80
2019-05-17T18:32:06.832Z,0.53
2019-05-17T18:34:34.045Z,0.53
2019-05-17T18:37:01.344Z,0.70
2019-05-17T18:39:28.549Z,0.60
2019-05-17T18:41:55.770Z,0.93
2019-05-17T18:44:27.771Z,1.07
2019-05-17T18:46:52.273Z,0.70
2019-05-17T18:49:19.549Z,1.10
2019-05-17T18:51:46.825Z,0.60
2019-05-17T18:54:14.056Z,0.78
2019-05-17T18:56:41.360Z,1.02
2019-05-17T18:59:08.619Z,1.07
2019-05-17T19:01:36.184Z,0.80
2019-05-17T19:04:03.391Z,0.80
2019-05-17T19:06:30.771Z,0.85
2019-05-17T19:08:58.034Z,0.70
2019-05-17T19:11:25.335Z,0.53
2019-05-17T19:13:52.949Z,1.12
2019-05-17T19:16:20.178Z,0.95
2019-05-17T19:18:47.449Z,1.77
2019-05-17T19:21:14.682Z,0.90
2019-05-17T19:23:41.949Z,1.00
2019-05-17T19:26:09.152Z,1.10
2019-05-17T19:28:36.381Z,1.25
2019-05-17T19:31:03.584Z,0.85
2019-05-17T19:33:31.173Z,1.50
2019-05-17T19:35:58.435Z,0.82
2019-05-17T19:38:25.656Z,1.15
2019-05-17T19:40:52.861Z,0.80
2019-05-17T19:43:20.168Z,1.20
2019-05-17T19:45:47.473Z,0.90
2019-05-17T19:48:14.790Z,0.85
2019-05-17T19:50:42.086Z,1.30
2019-05-17T19:53:09.460Z,1.15
2019-05-17T19:55:36.669Z,0.80
2019-05-17T19:58:04.047Z,0.85
2019-05-17T20:00:31.593Z,0.80
2019-05-17T20:02:58.908Z,1.02
2019-05-17T20:05:26.165Z,0.78
2019-05-17T20:07:53.476Z,0.80
2019-05-17T20:10:20.673Z,0.57
2019-05-17T20:12:48.003Z,0.72
2019-05-17T20:15:17.682Z,0.70
2019-05-17T20:17:44.196Z,0.70
2019-05-17T20:20:11.706Z,0.68
2019-05-17T20:22:38.946Z,0.62
2019-05-17T20:25:06.293Z,1.30
2019-05-17T20:27:33.597Z,1.00
2019-05-17T20:30:00.865Z,0.93
2019-05-17T20:32:28.124Z,0.55
2019-05-17T20:34:55.416Z,0.40
2019-05-17T20:37:22.665Z,0.40
2019-05-17T20:39:49.888Z,0.47
2019-05-17T20:42:17.205Z,0.68
2019-05-17T20:44:44.509Z,0.50
2019-05-17T20:47:11.720Z,0.50
2019-05-17T20:49:38.947Z,0.68
2019-05-17T20:52:06.207Z,0.47
2019-05-17T20:54:33.432Z,0.50
2019-05-17T20:57:00.732Z,0.50
2019-05-17T20:59:28.094Z,0.50
2019-05-17T21:01:55.286Z,0.30
2019-05-17T21:04:22.843Z,0.40
2019-05-17T21:06:50.041Z,0.40
2019-05-17T21:09:17.655Z,0.50
2019-05-17T21:11:44.926Z,0.50
2019-05-17T21:14:12.156Z,0.60
2019-05-17T21:16:39.716Z,1.05
2019-05-17T21:19:07.373Z,0.40
2019-05-17T21:21:34.570Z,0.68
2019-05-17T21:24:01.782Z,0.78
2019-05-17T21:26:29.080Z,0.70
2019-05-17T21:28:56.276Z,0.62
2019-05-17T21:31:23.473Z,0.60
2019-05-17T21:33:51.084Z,0.50
2019-05-17T21:36:18.362Z,0.45
2019-05-17T21:38:45.631Z,0.30
2019-05-17T21:41:12.860Z,0.55
2019-05-17T21:43:40.340Z,0.50
2019-05-17T21:46:07.546Z,0.30
2019-05-17T21:48:34.856Z,0.30
2019-05-17T21:51:02.054Z,0.40
2019-05-17T21:53:29.343Z,0.30
2019-05-17T21:55:56.660Z,0.68
2019-05-17T21:58:23.929Z,0.57
2019-05-17T22:01:01.809Z,0.40
2019-05-17T22:03:29.009Z,0.30
2019-05-17T22:05:56.621Z,0.50
2019-05-17T22:08:24.175Z,0.50
2019-05-17T22:10:51.452Z,0.50
2019-05-17T22:13:18.656Z,1.30
2019-05-17T22:15:45.900Z,0.45
2019-05-17T22:18:13.165Z,0.60
2019-05-17T22:20:40.364Z,0.60
2019-05-17T22:23:07.608Z,0.40
2019-05-17T22:25:34.808Z,0.90
2019-05-17T22:28:02.008Z,0.90
2019-05-17T22:30:29.242Z,0.60
2019-05-17T22:32:56.798Z,0.55
2019-05-17T22:35:24.068Z,1.10
2019-05-17T22:37:51.296Z,1.07
2019-05-17T22:40:18.505Z,0.50
2019-05-17T22:42:45.703Z,0.80
2019-05-17T22:45:13.109Z,3.55
2019-05-17T22:47:40.605Z,5.67
2019-05-17T22:50:07.796Z,3.77
2019-05-17T22:52:35.039Z,2.37
2019-05-17T22:55:02.269Z,1.30
2019-05-17T22:57:29.917Z,0.88
2019-05-17T22:59:57.480Z,2.60
2019-05-17T23:02:24.684Z,4.72
2019-05-17T23:04:51.952Z,4.08
2019-05-17T23:07:19.181Z,3.50
2019-05-17T23:09:46.389Z,3.25
2019-05-17T23:12:13.600Z,2.10
2019-05-17T23:14:40.865Z,2.50
2019-05-17T23:17:08.125Z,3.75
2019-05-17T23:19:35.428Z,2.00
2019-05-17T23:22:02.673Z,1.98
2019-05-17T23:24:30.197Z,1.70
2019-05-17T23:26:57.467Z,2.47
2019-05-17T23:29:24.788Z,2.00
2019-05-17T23:31:52.004Z,2.52
2019-05-17T23:34:19.261Z,1.72
2019-05-17T23:36:46.568Z,2.00
2019-05-17T23:39:13.768Z,0.88
2019-05-17T23:41:40.967Z,1.05
2019-05-17T23:44:08.292Z,0.98
2019-05-17T23:46:35.592Z,0.90
2019-05-17T23:49:02.801Z,1.25
2019-05-17T23:51:30.109Z,1.47
2019-05-17T23:53:57.308Z,1.75
2019-05-17T23:56:24.511Z,1.50
2019-05-17T23:58:52.120Z,1.65
